createdAt,value
2023-03-05T00:00:54.031Z,3.25
2023-03-05T00:01:56.304Z,3.27
2023-03-05T00:02:58.651Z,3.36
2023-03-05T00:04:02.171Z,3.37
2023-03-05T00:05:04.934Z,3.60
2023-03-05T00:06:08.244Z,3.53
2023-03-05T00:07:12.319Z,3.47
2023-03-05T00:08:14.595Z,3.41
2023-03-05T00:09:17.082Z,3.33
2023-03-05T00:10:19.728Z,3.42
2023-03-05T00:11:22.610Z,3.37
2023-03-05T00:12:24.851Z,3.52
2023-03-05T00:13:27.188Z,3.42
2023-03-05T00:14:29.343Z,3.48
2023-03-05T00:15:31.661Z,3.63
2023-03-05T00:16:34.151Z,3.63
2023-03-05T00:17:36.417Z,3.53
2023-03-05T00:18:39.197Z,3.67
2023-03-05T00:19:41.391Z,3.82
2023-03-05T00:20:43.616Z,3.93
2023-03-05T00:21:46.236Z,3.80
2023-03-05T00:22:48.444Z,3.81
2023-03-05T00:23:52.278Z,3.76
2023-03-05T00:24:54.521Z,3.81
2023-03-05T00:25:56.733Z,3.92
2023-03-05T00:26:59.166Z,3.92
2023-03-05T00:28:01.419Z,3.85
2023-03-05T00:29:03.952Z,3.94
2023-03-05T00:30:06.978Z,3.78
2023-03-05T00:31:09.395Z,3.78
2023-03-05T00:32:11.691Z,3.70
2023-03-05T00:33:14.131Z,3.98
2023-03-05T00:34:18.866Z,3.98
2023-03-05T00:35:21.092Z,3.93
2023-03-05T00:36:25.073Z,3.58
2023-03-05T00:37:27.286Z,3.48
2023-03-05T00:38:30.339Z,3.57
2023-03-05T00:39:32.601Z,3.54
2023-03-05T00:40:40.194Z,3.63
2023-03-05T00:41:42.479Z,3.78
2023-03-05T00:42:44.834Z,3.78
2023-03-05T00:43:47.803Z,3.61
2023-03-05T00:44:50.005Z,3.79
2023-03-05T00:45:52.166Z,3.90
2023-03-05T00:46:54.486Z,3.80
2023-03-05T00:47:56.899Z,3.75
2023-03-05T00:48:59.161Z,3.80
2023-03-05T00:50:01.894Z,3.81
2023-03-05T00:51:04.337Z,3.78
2023-03-05T00:52:06.569Z,3.84
2023-03-05T00:53:08.754Z,3.81
2023-03-05T00:54:11.017Z,3.72
2023-03-05T00:55:13.218Z,3.87
2023-03-05T00:56:15.814Z,3.79
2023-03-05T00:57:18.261Z,3.71
2023-03-05T00:58:20.469Z,3.73
2023-03-05T00:59:22.696Z,3.63
2023-03-05T01:00:25.027Z,3.55
2023-03-05T01:01:28.517Z,3.66
2023-03-05T01:02:33.808Z,3.61
2023-03-05T01:03:37.102Z,3.76
2023-03-05T01:04:39.411Z,3.88
2023-03-05T01:05:41.806Z,3.95
2023-03-05T01:06:46.164Z,3.97
2023-03-05T01:07:52.932Z,3.94
2023-03-05T01:08:56.503Z,3.96
2023-03-05T01:09:59.231Z,3.91
2023-03-05T01:11:02.248Z,4.06
2023-03-05T01:12:04.817Z,4.06
2023-03-05T01:13:07.074Z,4.13
2023-03-05T01:14:09.361Z,4.06
2023-03-05T01:15:11.703Z,3.91
2023-03-05T01:16:14.208Z,3.99
2023-03-05T01:17:16.527Z,3.96
2023-03-05T01:18:20.119Z,3.88
2023-03-05T01:19:22.312Z,3.78
2023-03-05T01:20:24.564Z,3.79
2023-03-05T01:21:26.848Z,3.80
2023-03-05T01:22:29.914Z,3.56
2023-03-05T01:23:34.388Z,3.58
2023-03-05T01:24:36.609Z,3.50
2023-03-05T01:25:38.997Z,3.37
2023-03-05T01:26:41.209Z,3.36
2023-03-05T01:27:43.818Z,3.48
2023-03-05T01:28:45.998Z,3.62
2023-03-05T01:29:48.496Z,3.72
2023-03-05T01:30:50.921Z,3.78
2023-03-05T01:31:53.169Z,3.79
2023-03-05T01:32:56.491Z,3.88
2023-03-05T01:34:00.153Z,3.82
2023-03-05T01:35:05.832Z,3.78
2023-03-05T01:36:15.526Z,3.57
2023-03-05T01:37:17.792Z,3.39
2023-03-05T01:38:20.053Z,3.21
2023-03-05T01:39:22.607Z,3.23
2023-03-05T01:40:27.929Z,3.28
2023-03-05T01:41:30.210Z,3.33
2023-03-05T01:42:32.439Z,3.39
2023-03-05T01:43:34.817Z,3.34
2023-03-05T01:44:37.273Z,3.27
2023-03-05T01:46:13.148Z,3.20
2023-03-05T01:47:15.446Z,3.25
2023-03-05T01:48:17.723Z,3.41
2023-03-05T01:49:28.157Z,3.31
2023-03-05T01:50:30.648Z,3.30
2023-03-05T01:51:56.573Z,3.29
2023-03-05T01:53:02.548Z,3.38
2023-03-05T01:54:07.385Z,3.32
2023-03-05T01:55:14.881Z,3.40
2023-03-05T01:56:17.835Z,3.49
2023-03-05T01:57:23.290Z,3.58
2023-03-05T01:58:26.007Z,3.61
2023-03-05T01:59:28.675Z,3.50
2023-03-05T02:02:08.469Z,3.58
2023-03-05T02:03:13.086Z,3.72
2023-03-05T02:04:18.797Z,3.69
2023-03-05T02:05:31.064Z,3.69
2023-03-05T02:06:33.762Z,3.75
2023-03-05T02:07:37.967Z,3.53
2023-03-05T02:08:40.510Z,3.51
2023-03-05T02:09:42.808Z,3.50
2023-03-05T02:10:48.071Z,3.58
2023-03-05T02:11:51.584Z,3.44
2023-03-05T02:13:00.196Z,3.37
2023-03-05T02:14:04.584Z,3.44
2023-03-05T02:15:08.134Z,3.46
2023-03-05T02:16:12.868Z,3.60
2023-03-05T02:17:15.874Z,3.64
2023-03-05T02:18:19.780Z,3.62
2023-03-05T02:19:22.078Z,3.72
2023-03-05T02:20:27.701Z,3.76
2023-03-05T02:21:38.956Z,3.82
2023-03-05T02:22:41.237Z,3.85
2023-03-05T02:23:43.578Z,3.95
2023-03-05T02:24:46.247Z,3.99
2023-03-05T02:25:54.775Z,4.00
2023-03-05T02:26:57.687Z,4.05
2023-03-05T02:28:22.374Z,4.00
2023-03-05T02:29:24.667Z,3.85
2023-03-05T02:30:27.464Z,3.79
2023-03-05T02:31:31.073Z,3.68
2023-03-05T02:32:33.404Z,3.50
2023-03-05T02:33:35.960Z,3.62
2023-03-05T02:34:38.274Z,3.56
2023-03-05T02:35:40.825Z,3.36
2023-03-05T02:36:43.566Z,3.30
2023-03-05T02:37:46.897Z,3.34
2023-03-05T02:38:49.388Z,3.36
2023-03-05T02:39:51.720Z,3.27
2023-03-05T02:40:54.120Z,3.34
2023-03-05T02:41:56.480Z,3.27
2023-03-05T02:42:59.009Z,3.34
2023-03-05T02:44:02.146Z,3.37
2023-03-05T02:45:05.047Z,3.42
2023-03-05T02:46:07.930Z,3.49
2023-03-05T02:47:10.298Z,3.51
2023-03-05T02:48:12.902Z,3.37
2023-03-05T02:49:15.148Z,3.33
2023-03-05T02:50:17.837Z,3.37
2023-03-05T02:51:20.123Z,3.48
2023-03-05T02:52:23.580Z,3.46
2023-03-05T02:53:26.851Z,3.64
2023-03-05T02:54:29.157Z,3.68
2023-03-05T02:55:31.306Z,3.66
2023-03-05T02:56:35.309Z,3.52
2023-03-05T02:57:37.626Z,3.44
2023-03-05T02:58:39.943Z,3.34
2023-03-05T02:59:42.411Z,3.32
2023-03-05T03:00:46.612Z,3.28
2023-03-05T03:01:48.818Z,3.31
2023-03-05T03:02:51.132Z,3.33
2023-03-05T03:03:53.593Z,3.29
2023-03-05T03:04:56.488Z,3.38
2023-03-05T03:05:58.864Z,3.50
2023-03-05T03:07:01.181Z,3.56
2023-03-05T03:08:03.860Z,3.55
2023-03-05T03:09:06.104Z,3.57
2023-03-05T03:10:09.337Z,3.56
2023-03-05T03:11:13.179Z,3.59
2023-03-05T03:12:15.552Z,3.50
2023-03-05T03:13:18.089Z,3.46
2023-03-05T03:14:20.734Z,3.41
2023-03-05T03:15:23.082Z,3.47
2023-03-05T03:16:25.363Z,3.39
2023-03-05T03:17:27.787Z,3.41
2023-03-05T03:18:30.073Z,3.34
2023-03-05T03:19:32.756Z,3.29
2023-03-05T03:20:39.007Z,3.33
2023-03-05T03:21:41.269Z,3.33
2023-03-05T03:22:45.070Z,3.26
2023-03-05T03:23:47.374Z,3.14
2023-03-05T03:24:49.553Z,3.18
2023-03-05T03:25:52.162Z,3.19
2023-03-05T03:26:54.391Z,3.26
2023-03-05T03:27:56.822Z,3.27
2023-03-05T03:28:59.129Z,3.22
2023-03-05T03:30:04.669Z,3.34
2023-03-05T03:31:07.140Z,3.39
2023-03-05T03:32:09.451Z,3.53
2023-03-05T03:33:11.978Z,3.59
2023-03-05T03:34:15.794Z,3.55
2023-03-05T03:35:18.340Z,3.64
2023-03-05T03:36:20.731Z,3.62
2023-03-05T03:37:23.063Z,3.63
2023-03-05T03:38:25.265Z,3.67
2023-03-05T03:39:27.724Z,3.65
2023-03-05T03:40:30.397Z,3.67
2023-03-05T03:41:33.409Z,3.65
2023-03-05T03:42:35.899Z,3.64
2023-03-05T03:43:38.265Z,3.69
2023-03-05T03:44:40.437Z,3.61
2023-03-05T03:45:44.967Z,3.55
2023-03-05T03:46:49.146Z,3.39
2023-03-05T03:47:51.694Z,3.44
2023-03-05T03:48:53.984Z,3.31
2023-03-05T03:49:56.718Z,3.26
2023-03-05T03:50:58.992Z,3.29
2023-03-05T03:52:01.309Z,3.24
2023-03-05T03:53:03.524Z,3.19
2023-03-05T03:54:05.822Z,3.19
2023-03-05T03:55:08.368Z,3.21
2023-03-05T03:56:10.682Z,3.27
2023-03-05T03:57:12.825Z,3.19
2023-03-05T03:58:15.080Z,3.11
2023-03-05T03:59:17.268Z,3.15
2023-03-05T04:00:19.631Z,3.20
2023-03-05T04:01:21.922Z,3.30
2023-03-05T04:02:24.243Z,3.42
2023-03-05T04:03:26.677Z,3.51
2023-03-05T04:04:30.173Z,3.54
2023-03-05T04:05:32.677Z,3.50
2023-03-05T04:06:35.079Z,3.45
2023-03-05T04:07:37.528Z,3.44
2023-03-05T04:08:39.816Z,3.42
2023-03-05T04:09:42.106Z,3.39
2023-03-05T04:10:44.567Z,3.36
2023-03-05T04:11:47.132Z,3.36
2023-03-05T04:12:49.397Z,3.33
2023-03-05T04:13:52.002Z,3.22
2023-03-05T04:14:54.744Z,3.26
2023-03-05T04:15:57.396Z,3.41
2023-03-05T04:16:59.925Z,3.41
2023-03-05T04:18:02.367Z,3.30
2023-03-05T04:19:04.567Z,3.27
2023-03-05T04:20:10.302Z,3.20
2023-03-05T04:21:12.750Z,3.22
2023-03-05T04:22:17.192Z,3.37
2023-03-05T04:23:20.100Z,3.26
2023-03-05T04:24:22.325Z,3.10
2023-03-05T04:25:24.498Z,3.14
2023-03-05T04:26:26.795Z,3.25
2023-03-05T04:27:28.965Z,3.18
2023-03-05T04:28:31.604Z,3.08
2023-03-05T04:29:34.630Z,3.25
2023-03-05T04:30:37.064Z,3.39
2023-03-05T04:31:39.237Z,3.38
2023-03-05T04:32:41.749Z,3.32
2023-03-05T04:33:44.133Z,3.39
2023-03-05T04:34:46.634Z,3.47
2023-03-05T04:35:48.852Z,3.48
2023-03-05T04:36:51.104Z,3.42
2023-03-05T04:37:53.363Z,3.62
2023-03-05T04:38:55.593Z,3.45
2023-03-05T04:39:57.842Z,3.41
2023-03-05T04:41:00.097Z,3.35
2023-03-05T04:42:02.426Z,3.40
2023-03-05T04:43:05.311Z,3.45
2023-03-05T04:44:07.563Z,3.43
2023-03-05T04:45:10.730Z,3.32
2023-03-05T04:46:13.087Z,3.36
2023-03-05T04:47:16.637Z,3.40
2023-03-05T04:48:18.876Z,3.43
2023-03-05T04:49:21.112Z,3.55
2023-03-05T04:50:23.831Z,3.51
2023-03-05T04:51:26.138Z,3.47
2023-03-05T04:52:28.281Z,3.32
2023-03-05T04:53:30.445Z,3.35
2023-03-05T04:54:33.041Z,3.31
2023-03-05T04:55:35.188Z,3.13
2023-03-05T04:56:37.742Z,3.20
2023-03-05T04:57:40.162Z,3.15
2023-03-05T04:58:42.293Z,3.18
2023-03-05T04:59:44.664Z,3.18
2023-03-05T05:00:46.846Z,3.19
2023-03-05T05:01:49.097Z,3.20
2023-03-05T05:02:52.520Z,3.17
2023-03-05T05:03:54.795Z,3.39
2023-03-05T05:04:56.997Z,3.55
2023-03-05T05:06:01.000Z,3.65
2023-03-05T05:07:03.526Z,3.64
2023-03-05T05:08:05.691Z,3.55
2023-03-05T05:09:08.185Z,3.53
2023-03-05T05:10:11.667Z,3.45
2023-03-05T05:11:14.642Z,3.54
2023-03-05T05:12:17.304Z,3.54
2023-03-05T05:13:19.613Z,3.52
2023-03-05T05:14:22.251Z,3.42
2023-03-05T05:15:24.583Z,3.26
2023-03-05T05:16:26.987Z,3.25
2023-03-05T05:17:32.846Z,3.31
2023-03-05T05:18:35.274Z,3.39
2023-03-05T05:19:37.575Z,3.44
2023-03-05T05:20:39.782Z,3.43
2023-03-05T05:21:42.456Z,3.51
2023-03-05T05:22:44.814Z,3.50
2023-03-05T05:23:47.211Z,3.54
2023-03-05T05:24:49.418Z,3.60
2023-03-05T05:25:58.988Z,3.55
2023-03-05T05:27:01.187Z,3.27
2023-03-05T05:28:04.167Z,3.11
2023-03-05T05:29:06.330Z,2.99
2023-03-05T05:30:09.007Z,2.87
2023-03-05T05:31:13.886Z,2.91
2023-03-05T05:32:17.557Z,3.05
2023-03-05T05:33:20.532Z,3.14
2023-03-05T05:34:25.038Z,3.26
2023-03-05T05:35:27.420Z,3.37
2023-03-05T05:36:29.674Z,3.44
2023-03-05T05:37:31.885Z,3.52
2023-03-05T05:38:35.084Z,3.53
2023-03-05T05:39:37.554Z,3.57
2023-03-05T05:40:40.602Z,3.55
2023-03-05T05:41:42.785Z,3.54
2023-03-05T05:42:45.290Z,3.50
2023-03-05T05:43:47.816Z,3.46
2023-03-05T05:44:50.506Z,3.47
2023-03-05T05:45:52.825Z,3.44
2023-03-05T05:46:55.197Z,3.50
2023-03-05T05:47:57.880Z,3.50
2023-03-05T05:49:00.136Z,3.43
2023-03-05T05:50:02.617Z,3.40
2023-03-05T05:51:10.359Z,3.20
2023-03-05T05:52:13.416Z,3.12
2023-03-05T05:53:15.741Z,3.07
2023-03-05T05:54:18.102Z,2.97
2023-03-05T05:55:20.335Z,2.98
2023-03-05T05:56:22.758Z,2.93
2023-03-05T05:57:25.082Z,2.94
2023-03-05T05:58:27.271Z,2.93
2023-03-05T05:59:29.661Z,3.04
2023-03-05T06:00:31.946Z,3.18
2023-03-05T06:01:34.903Z,3.25
2023-03-05T06:02:41.378Z,3.38
2023-03-05T06:03:43.845Z,3.26
2023-03-05T06:04:46.163Z,3.22
2023-03-05T06:05:48.478Z,3.22
2023-03-05T06:06:50.839Z,3.19
2023-03-05T06:07:53.012Z,3.20
2023-03-05T06:08:56.909Z,3.14
2023-03-05T06:09:59.247Z,3.05
2023-03-05T06:11:01.571Z,3.13
2023-03-05T06:12:04.262Z,3.33
2023-03-05T06:13:06.520Z,3.50
2023-03-05T06:14:11.379Z,3.54
2023-03-05T06:15:13.589Z,3.57
2023-03-05T06:16:24.007Z,3.58
2023-03-05T06:17:30.718Z,3.29
2023-03-05T06:18:34.553Z,3.10
2023-03-05T06:19:36.817Z,3.04
2023-03-05T06:20:39.102Z,3.12
2023-03-05T06:21:43.142Z,3.18
2023-03-05T06:22:45.545Z,3.16
2023-03-05T06:23:48.408Z,3.20
2023-03-05T06:24:50.627Z,3.38
2023-03-05T06:25:53.220Z,3.43
2023-03-05T06:26:55.718Z,3.40
2023-03-05T06:27:57.939Z,3.36
2023-03-05T06:29:00.183Z,3.28
2023-03-05T06:30:03.053Z,3.21
2023-03-05T06:31:07.796Z,3.31
2023-03-05T06:32:10.401Z,3.39
2023-03-05T06:33:12.699Z,3.35
2023-03-05T06:34:14.915Z,3.23
2023-03-05T06:35:17.470Z,3.24
2023-03-05T06:36:21.640Z,3.20
2023-03-05T06:37:24.004Z,3.35
2023-03-05T06:38:26.294Z,3.34
2023-03-05T06:39:30.198Z,3.32
2023-03-05T06:40:32.553Z,3.20
2023-03-05T06:41:34.961Z,3.27
2023-03-05T06:42:37.221Z,3.40
2023-03-05T06:43:41.809Z,3.58
2023-03-05T06:44:44.620Z,3.52
2023-03-05T06:45:48.466Z,3.51
2023-03-05T06:46:50.622Z,3.39
2023-03-05T06:47:53.086Z,3.26
2023-03-05T06:48:57.388Z,3.18
2023-03-05T06:49:59.591Z,3.19
2023-03-05T06:51:01.844Z,3.24
2023-03-05T06:52:05.710Z,3.21
2023-03-05T06:53:08.359Z,3.38
2023-03-05T06:54:15.556Z,3.57
2023-03-05T06:55:18.708Z,3.65
2023-03-05T06:56:21.857Z,3.59
2023-03-05T06:57:24.143Z,3.47
2023-03-05T06:58:26.382Z,3.42
2023-03-05T06:59:28.658Z,3.69
2023-03-05T07:00:31.083Z,3.76
2023-03-05T07:01:33.830Z,3.82
2023-03-05T07:02:40.562Z,3.70
2023-03-05T07:03:43.639Z,3.57
2023-03-05T07:04:46.866Z,3.54
2023-03-05T07:05:49.131Z,3.59
2023-03-05T07:06:51.427Z,3.58
2023-03-05T07:07:53.681Z,3.52
2023-03-05T07:08:57.085Z,3.36
2023-03-05T07:09:59.598Z,3.39
2023-03-05T07:11:02.038Z,3.59
2023-03-05T07:12:04.533Z,3.48
2023-03-05T07:13:07.341Z,3.61
2023-03-05T07:14:09.811Z,3.63
2023-03-05T07:15:12.650Z,3.49
2023-03-05T07:16:17.762Z,3.45
2023-03-05T07:17:20.051Z,3.63
2023-03-05T07:18:22.259Z,3.78
2023-03-05T07:19:24.489Z,3.80
2023-03-05T07:20:26.731Z,4.08
2023-03-05T07:21:31.676Z,4.07
2023-03-05T07:22:33.910Z,3.86
2023-03-05T07:23:36.725Z,4.14
2023-03-05T07:24:39.008Z,4.15
2023-03-05T07:25:41.478Z,4.14
2023-03-05T07:26:43.879Z,4.06
2023-03-05T07:27:46.111Z,4.10
2023-03-05T07:28:48.638Z,4.11
2023-03-05T07:29:51.154Z,4.18
2023-03-05T07:30:58.161Z,4.24
2023-03-05T07:32:00.439Z,3.67
2023-03-05T07:33:02.772Z,3.67
2023-03-05T07:34:06.419Z,3.84
2023-03-05T07:35:09.432Z,3.86
2023-03-05T07:36:12.656Z,3.99
2023-03-05T07:37:15.318Z,4.23
2023-03-05T07:38:17.748Z,4.26
2023-03-05T07:39:20.113Z,4.25
2023-03-05T07:40:22.461Z,4.30
2023-03-05T07:41:24.791Z,4.45
2023-03-05T07:42:27.077Z,4.50
2023-03-05T07:43:45.810Z,4.47
2023-03-05T07:44:48.189Z,4.63
2023-03-05T07:45:50.410Z,4.59
2023-03-05T07:46:52.630Z,4.59
2023-03-05T07:47:56.124Z,4.29
2023-03-05T07:48:58.846Z,4.46
2023-03-05T07:50:01.550Z,4.47
2023-03-05T07:51:06.173Z,4.67
2023-03-05T07:52:09.482Z,4.68
2023-03-05T07:53:12.056Z,4.34
2023-03-05T07:54:14.312Z,4.33
2023-03-05T07:55:16.653Z,4.17
2023-03-05T07:56:31.885Z,4.25
2023-03-05T07:57:35.423Z,4.21
2023-03-05T07:58:37.777Z,4.29
2023-03-05T07:59:40.202Z,4.15
2023-03-05T08:00:42.457Z,4.35
2023-03-05T08:01:46.255Z,4.50
2023-03-05T08:02:50.101Z,4.53
2023-03-05T08:03:52.419Z,4.63
2023-03-05T08:04:54.920Z,4.78
2023-03-05T08:05:57.143Z,4.75
2023-03-05T08:07:00.048Z,4.92
2023-03-05T08:08:02.324Z,4.86
2023-03-05T08:09:04.534Z,4.69
2023-03-05T08:10:07.533Z,4.79
2023-03-05T08:11:11.990Z,4.85
2023-03-05T08:12:14.201Z,4.93
2023-03-05T08:13:16.565Z,4.94
2023-03-05T08:14:18.854Z,4.80
2023-03-05T08:15:21.122Z,4.68
2023-03-05T08:16:25.899Z,4.61
2023-03-05T08:17:28.120Z,4.49
2023-03-05T08:18:30.501Z,4.43
2023-03-05T08:19:33.367Z,4.43
2023-03-05T08:20:36.498Z,4.50
2023-03-05T08:21:38.894Z,4.37
2023-03-05T08:22:41.102Z,4.27
2023-03-05T08:23:44.048Z,4.15
2023-03-05T08:24:46.392Z,4.29
2023-03-05T08:25:48.706Z,4.24
2023-03-05T08:26:50.957Z,4.51
2023-03-05T08:27:53.128Z,4.53
2023-03-05T08:28:55.608Z,4.63
2023-03-05T08:29:57.888Z,4.64
2023-03-05T08:31:00.202Z,4.35
2023-03-05T08:32:02.571Z,4.50
2023-03-05T08:33:04.898Z,4.53
2023-03-05T08:34:07.481Z,4.55
2023-03-05T08:35:09.921Z,4.42
2023-03-05T08:36:13.308Z,4.50
2023-03-05T08:37:16.162Z,4.36
2023-03-05T08:38:20.943Z,4.55
2023-03-05T08:39:23.366Z,4.69
2023-03-05T08:40:26.158Z,4.74
2023-03-05T08:41:28.491Z,4.70
2023-03-05T08:42:30.781Z,4.78
2023-03-05T08:43:33.323Z,4.80
2023-03-05T08:44:35.750Z,4.82
2023-03-05T08:45:39.961Z,4.85
2023-03-05T08:46:42.311Z,4.79
2023-03-05T08:47:44.798Z,4.84
2023-03-05T08:48:47.043Z,4.85
2023-03-05T08:49:49.388Z,4.87
2023-03-05T08:50:51.931Z,4.88
2023-03-05T08:51:54.216Z,4.98
2023-03-05T08:52:57.056Z,4.88
2023-03-05T08:54:00.233Z,4.86
2023-03-05T08:55:02.839Z,4.93
2023-03-05T08:56:05.549Z,5.00
2023-03-05T08:57:08.395Z,5.02
2023-03-05T08:58:10.599Z,4.95
2023-03-05T08:59:13.776Z,4.97
2023-03-05T09:00:17.091Z,5.04
2023-03-05T09:01:19.606Z,5.09
2023-03-05T09:02:21.933Z,5.05
2023-03-05T09:03:24.284Z,4.94
2023-03-05T09:04:26.731Z,5.02
2023-03-05T09:05:29.190Z,5.09
2023-03-05T09:06:31.504Z,5.16
2023-03-05T09:07:33.724Z,5.28
2023-03-05T09:08:36.233Z,5.23
2023-03-05T09:09:38.482Z,5.23
2023-03-05T09:10:44.806Z,5.36
2023-03-05T09:11:47.550Z,5.07
2023-03-05T09:12:49.879Z,5.25
2023-03-05T09:13:53.531Z,5.32
2023-03-05T09:14:56.388Z,5.36
2023-03-05T09:16:01.990Z,5.27
2023-03-05T09:17:04.243Z,5.12
2023-03-05T09:18:08.933Z,5.22
2023-03-05T09:19:12.760Z,5.23
2023-03-05T09:20:16.829Z,5.44
2023-03-05T09:21:19.206Z,5.56
2023-03-05T09:22:21.502Z,5.68
2023-03-05T09:23:25.088Z,5.69
2023-03-05T09:24:27.871Z,5.79
2023-03-05T09:25:30.140Z,5.88
2023-03-05T09:26:32.655Z,5.81
2023-03-05T09:27:36.385Z,5.73
2023-03-05T09:28:39.610Z,5.32
2023-03-05T09:29:43.248Z,5.19
2023-03-05T09:30:45.902Z,5.32
2023-03-05T09:31:51.537Z,5.62
2023-03-05T09:32:53.861Z,5.81
2023-03-05T09:33:56.141Z,5.84
2023-03-05T09:34:58.986Z,6.03
2023-03-05T09:36:02.032Z,6.09
2023-03-05T09:37:04.367Z,6.12
2023-03-05T09:38:06.685Z,6.23
2023-03-05T09:39:08.933Z,5.72
2023-03-05T09:40:21.699Z,5.56
2023-03-05T09:41:45.501Z,5.69
2023-03-05T09:43:03.518Z,5.76
2023-03-05T09:44:36.029Z,5.96
2023-03-05T09:45:41.438Z,6.02
2023-03-05T09:47:09.933Z,6.26
2023-03-05T09:48:21.355Z,6.32
2023-03-05T09:49:59.989Z,6.49
2023-03-05T09:51:04.285Z,6.46
2023-03-05T09:52:22.150Z,6.38
2023-03-05T09:53:42.798Z,6.37
2023-03-05T09:54:49.587Z,6.10
2023-03-05T09:55:58.187Z,6.29
2023-03-05T09:57:04.374Z,6.44
2023-03-05T09:58:34.159Z,6.58
2023-03-05T09:59:56.090Z,6.58
2023-03-05T10:01:02.498Z,6.62
2023-03-05T10:02:23.179Z,6.86
2023-03-05T10:03:30.536Z,6.90
2023-03-05T10:05:17.016Z,7.03
2023-03-05T10:06:29.082Z,6.90
2023-03-05T10:07:36.349Z,6.78
2023-03-05T10:08:48.620Z,6.83
2023-03-05T10:09:56.996Z,6.93
2023-03-05T10:11:07.430Z,7.05
2023-03-05T10:12:20.859Z,6.96
2023-03-05T10:13:36.910Z,6.94
2023-03-05T10:14:40.760Z,6.73
2023-03-05T10:15:53.717Z,6.91
2023-03-05T10:17:25.428Z,6.61
2023-03-05T10:18:37.167Z,6.79
2023-03-05T10:20:07.214Z,6.89
2023-03-05T10:21:31.216Z,6.78
2023-03-05T10:22:55.499Z,6.77
2023-03-05T10:24:13.412Z,6.91
2023-03-05T10:25:33.915Z,6.89
2023-03-05T10:26:52.368Z,6.83
2023-03-05T10:28:07.779Z,6.85
2023-03-05T10:29:39.371Z,6.59
2023-03-05T10:30:58.090Z,6.09
2023-03-05T10:32:29.382Z,6.33
2023-03-05T10:33:54.729Z,6.41
2023-03-05T10:35:12.098Z,6.26
2023-03-05T10:36:25.955Z,6.09
2023-03-05T10:37:56.439Z,5.78
2023-03-05T10:39:29.423Z,5.75
2023-03-05T10:40:54.497Z,5.87
2023-03-05T10:42:31.033Z,6.01
2023-03-05T10:43:42.040Z,6.23
2023-03-05T10:44:54.936Z,6.32
2023-03-05T10:45:58.225Z,6.24
2023-03-05T10:47:02.836Z,6.19
2023-03-05T10:48:14.278Z,5.92
2023-03-05T10:49:24.660Z,5.85
2023-03-05T10:50:33.662Z,5.84
2023-03-05T10:51:47.585Z,5.99
2023-03-05T10:53:02.240Z,6.17
2023-03-05T10:54:29.548Z,6.01
2023-03-05T10:55:32.205Z,6.25
2023-03-05T10:56:34.517Z,6.11
2023-03-05T10:57:36.746Z,5.63
2023-03-05T10:58:38.923Z,6.01
2023-03-05T11:00:06.853Z,6.18
2023-03-05T11:01:12.270Z,6.35
2023-03-05T11:02:14.896Z,6.37
2023-03-05T11:03:17.174Z,6.35
2023-03-05T11:04:32.128Z,6.50
2023-03-05T11:05:50.958Z,6.55
2023-03-05T11:06:53.267Z,6.15
2023-03-05T11:07:55.487Z,6.01
2023-03-05T11:09:18.093Z,6.15
2023-03-05T11:10:21.554Z,6.29
2023-03-05T11:11:23.898Z,6.32
2023-03-05T11:12:37.221Z,6.25
2023-03-05T11:14:00.887Z,6.41
2023-03-05T11:15:14.917Z,6.45
2023-03-05T11:16:21.705Z,6.60
2023-03-05T11:17:24.193Z,6.46
2023-03-05T11:18:26.694Z,6.53
2023-03-05T11:19:32.971Z,6.49
2023-03-05T11:20:36.319Z,6.42
2023-03-05T11:21:38.579Z,6.53
2023-03-05T11:22:40.972Z,6.60
2023-03-05T11:23:43.517Z,6.60
2023-03-05T11:25:06.216Z,6.77
2023-03-05T11:26:14.096Z,6.76
2023-03-05T11:27:35.924Z,6.51
2023-03-05T11:28:41.130Z,6.53
2023-03-05T11:29:49.347Z,6.58
2023-03-05T11:31:07.344Z,6.37
2023-03-05T11:32:21.232Z,6.33
2023-03-05T11:33:24.462Z,6.28
2023-03-05T11:34:35.099Z,6.28
2023-03-05T11:35:41.977Z,6.25
2023-03-05T11:37:03.736Z,6.26
2023-03-05T11:38:26.019Z,5.96
2023-03-05T11:39:30.366Z,6.00
2023-03-05T11:40:37.293Z,5.90
2023-03-05T11:42:04.362Z,5.77
2023-03-05T11:43:06.523Z,5.87
2023-03-05T11:44:20.770Z,5.98
2023-03-05T11:45:25.801Z,6.04
2023-03-05T11:46:28.704Z,6.11
2023-03-05T11:47:47.729Z,6.08
2023-03-05T11:48:50.418Z,6.18
2023-03-05T11:50:00.271Z,6.09
2023-03-05T11:51:13.621Z,5.98
2023-03-05T11:52:22.813Z,5.98
2023-03-05T11:53:36.799Z,6.16
2023-03-05T11:55:23.983Z,6.15
2023-03-05T11:56:36.797Z,5.88
2023-03-05T11:58:07.786Z,5.98
2023-03-05T11:59:26.817Z,5.86
2023-03-05T12:00:31.673Z,5.73
2023-03-05T12:01:43.331Z,5.86
2023-03-05T12:02:52.224Z,5.99
2023-03-05T12:03:55.522Z,5.89
2023-03-05T12:04:59.931Z,5.98
2023-03-05T12:06:13.998Z,6.08
2023-03-05T12:07:41.817Z,6.14
2023-03-05T12:08:51.147Z,6.07
2023-03-05T12:09:54.178Z,5.97
2023-03-05T12:10:59.286Z,5.95
2023-03-05T12:12:06.348Z,5.90
2023-03-05T12:13:15.317Z,5.86
2023-03-05T12:14:28.742Z,5.88
2023-03-05T12:16:01.072Z,5.84
2023-03-05T12:17:42.261Z,5.56
2023-03-05T12:19:07.017Z,5.69
2023-03-05T12:20:22.551Z,5.80
2023-03-05T12:21:38.255Z,5.67
2023-03-05T12:22:42.040Z,5.74
2023-03-05T12:24:01.729Z,5.76
2023-03-05T12:25:34.932Z,5.80
2023-03-05T12:27:04.571Z,5.77
2023-03-05T12:28:15.091Z,5.71
2023-03-05T12:29:43.869Z,5.70
2023-03-05T12:30:46.056Z,5.43
2023-03-05T12:31:48.966Z,5.43
2023-03-05T12:32:52.688Z,5.42
2023-03-05T12:33:54.943Z,5.51
2023-03-05T12:35:24.572Z,5.67
2023-03-05T12:36:34.793Z,5.56
2023-03-05T12:37:51.965Z,5.73
2023-03-05T12:38:57.465Z,5.94
2023-03-05T12:40:07.943Z,6.05
2023-03-05T12:41:22.154Z,6.14
2023-03-05T12:42:30.393Z,6.28
2023-03-05T12:43:33.972Z,6.23
2023-03-05T12:44:36.196Z,6.29
2023-03-05T12:45:40.908Z,6.07
2023-03-05T12:46:44.784Z,6.17
2023-03-05T12:47:53.719Z,6.17
2023-03-05T12:48:55.996Z,6.12
2023-03-05T12:50:00.981Z,6.06
2023-03-05T12:51:03.832Z,5.70
2023-03-05T12:52:23.686Z,5.79
2023-03-05T12:53:25.903Z,5.77
2023-03-05T12:54:28.683Z,5.89
2023-03-05T12:55:39.835Z,5.97
2023-03-05T12:56:46.404Z,5.99
2023-03-05T12:57:56.406Z,5.94
2023-03-05T12:59:01.663Z,5.88
2023-03-05T13:00:14.304Z,5.94
2023-03-05T13:01:36.030Z,5.94
2023-03-05T13:02:44.529Z,5.85
2023-03-05T13:04:10.527Z,5.83
2023-03-05T13:05:25.193Z,5.83
2023-03-05T13:06:32.488Z,5.50
2023-03-05T13:07:35.102Z,5.51
2023-03-05T13:08:37.840Z,5.60
2023-03-05T13:09:40.350Z,5.63
2023-03-05T13:10:43.590Z,5.65
2023-03-05T13:11:50.082Z,5.62
2023-03-05T13:12:54.434Z,5.69
2023-03-05T13:13:57.706Z,5.69
2023-03-05T13:15:05.701Z,5.69
2023-03-05T13:16:18.820Z,5.71
2023-03-05T13:17:32.506Z,5.62
2023-03-05T13:18:35.159Z,5.68
2023-03-05T13:19:41.591Z,5.68
2023-03-05T13:20:44.406Z,5.73
2023-03-05T13:21:59.840Z,5.84
2023-03-05T13:23:21.073Z,5.70
2023-03-05T13:24:23.686Z,5.75
2023-03-05T13:25:26.050Z,5.88
2023-03-05T13:26:38.313Z,5.87
2023-03-05T13:27:42.683Z,5.88
2023-03-05T13:29:28.107Z,5.98
2023-03-05T13:30:30.909Z,6.07
2023-03-05T13:31:36.171Z,5.82
2023-03-05T13:32:38.573Z,5.95
2023-03-05T13:33:41.096Z,5.95
2023-03-05T13:34:48.159Z,6.05
2023-03-05T13:35:52.366Z,6.00
2023-03-05T13:37:18.663Z,6.01
2023-03-05T13:38:45.075Z,5.95
2023-03-05T13:39:55.263Z,5.93
2023-03-05T13:41:04.191Z,5.85
2023-03-05T13:42:19.109Z,5.85
2023-03-05T13:43:21.415Z,5.88
2023-03-05T13:44:23.619Z,5.80
2023-03-05T13:45:28.813Z,5.87
2023-03-05T13:46:39.339Z,6.06
2023-03-05T13:47:58.338Z,5.98
2023-03-05T13:49:38.954Z,6.07
2023-03-05T13:50:41.369Z,6.04
2023-03-05T13:51:45.550Z,6.11
2023-03-05T13:52:47.747Z,6.07
2023-03-05T13:53:50.737Z,5.98
2023-03-05T13:54:53.120Z,5.89
2023-03-05T13:56:01.385Z,5.90
2023-03-05T13:57:08.546Z,5.95
2023-03-05T13:58:41.807Z,6.11
2023-03-05T13:59:52.343Z,5.70
2023-03-05T14:01:12.677Z,5.73
2023-03-05T14:02:19.864Z,5.65
2023-03-05T14:03:28.194Z,5.80
2023-03-05T14:04:41.209Z,5.90
2023-03-05T14:05:45.257Z,6.04
2023-03-05T14:07:03.585Z,5.94
2023-03-05T14:08:05.896Z,5.85
2023-03-05T14:09:20.369Z,5.92
2023-03-05T14:10:37.414Z,5.68
2023-03-05T14:11:39.612Z,5.60
2023-03-05T14:12:43.550Z,5.57
2023-03-05T14:13:48.287Z,5.56
2023-03-05T14:14:51.226Z,5.51
2023-03-05T14:16:04.862Z,5.83
2023-03-05T14:17:30.652Z,6.05
2023-03-05T14:18:34.531Z,6.13
2023-03-05T14:19:38.859Z,5.95
2023-03-05T14:21:02.373Z,5.86
2023-03-05T14:22:05.931Z,5.60
2023-03-05T14:23:27.006Z,5.55
2023-03-05T14:24:31.257Z,5.60
2023-03-05T14:25:39.614Z,5.35
2023-03-05T14:26:50.302Z,5.41
2023-03-05T14:27:52.589Z,5.21
2023-03-05T14:29:14.498Z,5.29
2023-03-05T14:30:19.655Z,5.21
2023-03-05T14:31:23.092Z,5.28
2023-03-05T14:32:31.802Z,5.23
2023-03-05T14:33:34.355Z,5.24
2023-03-05T14:34:41.955Z,5.39
2023-03-05T14:35:49.329Z,5.49
2023-03-05T14:36:53.591Z,5.57
2023-03-05T14:37:58.243Z,5.65
2023-03-05T14:39:01.002Z,5.42
2023-03-05T14:40:28.106Z,5.27